In Rescue
 
Open Full Screen Window  High Contrast Mode
Wind Gusting 00 knots
04
November 29, 2022 9:08 AM EST
Weather Information
Wind Direction
  120 °
Wind Speed
  04 kt (5 mph)
Wind Gust
  00 kt (0 mph)
Altimeter
29.95 in
Visibility
10 SM
Temperature
04° C
39° F
Dewpoint
01° C
34° F
Humidity
81%
1hr Rain Fall
00.00 in.
24hr Rain Fall
00.00 in.
Sky Condition
Overcast @ 2,900 ft
MVFR

METAR KMOP 291408Z AUTO 12004KT 10SM OVC029 04/01 A2995 RMK AO2 T00360011

FAA Disclaimer: The data displayed is for advisory purposes only and is not to be used for flight planning or operations.